Time;durP1;ratioP1;P1;durP2;ratioP2;P2;SDS_P1;SDS_P2;PMS_P1;PMS_P2;Temp;Humidity;BMP_temperature;BMP_pressure;BME280_temperature;BME280_humidity;BME280_pressure;Samples;Min_cycle;Max_cycle;Signal;HPM_P1;HPM_P2
2023/06/10 00:02:00;;;;;;;11.18;4.22;;;;;;;18.79;84.19;99849.28;10368170;28;20412;-73
2023/06/10 00:07:00;;;;;;;15.18;4.43;;;;;;;18.20;84.74;99760.44;10368636;28;20146;-72
2023/06/10 00:12:02;;;;;;;10.27;4.07;;;;;;;18.09;85.38;99767.44;10368165;28;20408;-73
2023/06/10 00:17:03;;;;;;;7.72;4.20;;;;;;;18.25;86.21;99804.41;10368372;28;20087;-73
2023/06/10 00:22:04;;;;;;;7.60;4.03;;;;;;;18.28;86.75;99807.66;10369027;28;20382;-72
2023/06/10 00:27:06;;;;;;;7.03;4.05;;;;;;;18.17;87.54;99801.22;10367214;28;20564;-73
2023/06/10 00:32:07;;;;;;;6.93;4.68;;;;;;;18.16;88.09;99794.22;10366659;28;20115;-73
2023/06/10 00:37:08;;;;;;;9.00;4.22;;;;;;;18.13;88.40;99776.69;10367201;28;20530;-73
2023/06/10 00:42:10;;;;;;;7.22;4.50;;;;;;;18.09;89.34;99778.19;10367641;28;20041;-73
2023/06/10 00:47:11;;;;;;;9.20;4.32;;;;;;;17.82;90.41;99739.34;10366558;28;20102;-73
2023/06/10 00:52:13;;;;;;;8.98;4.20;;;;;;;17.96;91.33;99770.34;10394755;28;20051;-73
2023/06/10 00:57:14;;;;;;;6.50;4.28;;;;;;;18.18;91.24;99786.72;10407782;28;20044;-73
2023/06/10 01:02:15;;;;;;;7.70;4.25;;;;;;;18.08;91.89;99768.50;10408472;28;20041;-73
2023/06/10 01:07:28;;;;;;;7.53;4.47;;;;;;;17.85;95.58;99720.88;10408127;28;20069;-73
2023/06/10 01:12:48;;;;;;;11.23;5.23;;;;;;;17.52;96.44;99654.22;10406214;28;20044;-73
2023/06/10 01:17:57;;;;;;;18.25;5.68;;;;;;;18.35;95.67;99773.44;10407952;28;20468;-73
2023/06/10 01:23:00;;;;;;;7.13;4.70;;;;;;;18.52;93.19;99784.31;10407063;28;20521;-73
2023/06/10 01:28:10;;;;;;;12.13;5.43;;;;;;;18.58;95.33;99783.41;10406889;28;20042;-73
2023/06/10 01:33:12;;;;;;;13.82;5.07;;;;;;;18.15;92.61;99709.25;10406203;28;20049;-73
2023/06/10 01:38:14;;;;;;;10.02;4.70;;;;;;;18.66;93.16;99789.22;10406854;28;20069;-73
2023/06/10 01:43:15;;;;;;;23.55;5.38;;;;;;;18.72;92.48;99776.69;10406880;28;20045;-74
2023/06/10 01:48:16;;;;;;;11.60;4.90;;;;;;;18.79;92.24;99784.69;10413655;28;20057;-74
2023/06/10 01:53:17;;;;;;;10.68;4.80;;;;;;;17.88;92.20;99637.13;10413533;28;20068;-73
2023/06/10 01:58:18;;;;;;;6.82;4.38;;;;;;;18.75;92.34;99775.44;10413118;28;20041;-73
2023/06/10 02:03:18;;;;;;;16.75;5.18;;;;;;;18.71;92.29;99762.44;10413243;28;20121;-73
2023/06/10 02:08:19;;;;;;;11.45;5.38;;;;;;;18.76;92.48;99759.09;10412661;28;20042;-73
2023/06/10 02:13:20;;;;;;;11.80;4.97;;;;;;;18.51;92.83;99705.50;10412450;28;20034;-73
2023/06/10 02:18:21;;;;;;;13.20;4.97;;;;;;;19.07;92.93;99778.56;10412248;28;20072;-73
2023/06/10 02:23:22;;;;;;;39.80;6.68;;;;;;;19.27;93.61;99799.72;10412103;28;20124;-74
2023/06/10 02:28:23;;;;;;;14.25;4.85;;;;;;;19.49;93.42;99787.22;10413005;28;20049;-73
2023/06/10 02:33:24;;;;;;;12.32;4.53;;;;;;;19.53;93.25;99768.69;10411201;28;20041;-73
2023/06/10 02:38:25;;;;;;;8.32;4.55;;;;;;;19.90;92.70;99797.97;10411573;28;20037;-73
2023/06/10 02:43:26;;;;;;;17.15;4.45;;;;;;;19.98;92.10;99776.84;10410549;28;20073;-74
2023/06/10 02:48:27;;;;;;;10.13;3.80;;;;;;;20.25;91.83;99795.88;10411380;28;20059;-73
2023/06/10 02:53:28;;;;;;;10.32;3.88;;;;;;;20.57;90.72;99797.19;10411491;28;20041;-74
2023/06/10 02:58:29;;;;;;;10.90;4.10;;;;;;;20.60;89.82;99775.13;10410007;28;20037;-72
2023/06/10 03:03:30;;;;;;;9.63;4.10;;;;;;;20.53;88.80;99710.53;10411387;28;20061;-73
2023/06/10 03:08:31;;;;;;;6.55;3.72;;;;;;;21.42;87.01;99768.91;10410817;28;20052;-75
2023/06/10 03:13:32;;;;;;;8.00;3.80;;;;;;;21.96;84.82;99771.63;10411165;28;20386;-74
2023/06/10 03:18:33;;;;;;;9.77;3.72;;;;;;;22.27;83.48;99770.00;10410717;28;20569;-75
2023/06/10 03:23:34;;;;;;;19.10;4.38;;;;;;;22.93;81.41;99763.38;10409331;28;20046;-72
2023/06/10 03:28:35;;;;;;;18.65;4.50;;;;;;;23.31;79.71;99769.53;10409737;28;20385;-75
2023/06/10 03:33:37;;;;;;;7.63;3.10;;;;;;;23.98;77.29;99752.31;10407996;28;20038;-74
2023/06/10 03:38:38;;;;;;;9.63;3.15;;;;;;;24.98;72.66;99759.78;10410036;28;20086;-73
2023/06/10 03:43:40;;;;;;;8.60;3.40;;;;;;;25.76;69.67;99746.56;10408850;28;20174;-74
2023/06/10 03:48:41;;;;;;;9.10;3.60;;;;;;;25.41;68.67;99708.47;10408793;28;20046;-76
2023/06/10 03:53:42;;;;;;;8.52;3.30;;;;;;;25.38;67.00;99698.16;10409604;28;20033;-72
2023/06/10 03:58:42;;;;;;;10.30;2.88;;;;;;;26.19;64.89;99761.25;10409587;28;20405;-73
2023/06/10 04:03:44;;;;;;;6.88;2.75;;;;;;;26.22;64.62;99725.28;10402356;28;20092;-73
2023/06/10 04:08:45;;;;;;;8.18;2.78;;;;;;;26.07;64.00;99736.31;10408921;28;20045;-73
2023/06/10 04:13:46;;;;;;;5.90;2.35;;;;;;;27.30;61.30;99735.81;10408999;28;20417;-73
2023/06/10 04:18:47;;;;;;;8.68;2.70;;;;;;;28.14;57.96;99738.63;10409103;28;20045;-73
2023/06/10 04:23:48;;;;;;;7.20;2.80;;;;;;;27.16;58.63;99735.72;10408789;28;20069;-73
2023/06/10 04:28:49;;;;;;;5.75;2.40;;;;;;;26.07;59.95;99684.59;10408127;28;20508;-73
2023/06/10 04:33:50;;;;;;;8.13;2.58;;;;;;;25.73;60.97;99734.38;10408201;28;20041;-73
2023/06/10 04:38:52;;;;;;;12.63;2.72;;;;;;;25.05;60.21;99667.88;10408201;28;20034;-73
2023/06/10 04:43:53;;;;;;;9.18;2.88;;;;;;;26.23;59.49;99687.97;10407989;28;20374;-74
2023/06/10 04:48:54;;;;;;;8.27;2.80;;;;;;;26.43;58.02;99734.06;10404616;28;20033;-72
2023/06/10 04:53:55;;;;;;;5.97;2.30;;;;;;;26.38;56.03;99694.09;10366434;28;20124;-74
2023/06/10 04:58:59;;;;;;;6.22;2.50;;;;;;;26.37;56.37;99722.41;10373113;28;20034;-72
2023/06/10 05:04:00;;;;;;;11.38;3.05;;;;;;;26.37;55.16;99707.97;10372419;28;20053;-73
2023/06/10 05:09:01;;;;;;;7.78;2.47;;;;;;;27.00;54.21;99720.63;10405352;28;20045;-72
2023/06/10 05:14:01;;;;;;;6.38;2.65;;;;;;;26.97;53.17;99685.78;10367060;28;20501;-72
2023/06/10 05:19:03;;;;;;;5.28;2.30;;;;;;;26.63;52.93;99682.13;10365721;28;20103;-72
2023/06/10 05:24:04;;;;;;;12.48;3.30;;;;;;;26.75;53.74;99691.81;10379782;28;20505;-72
2023/06/10 05:29:05;;;;;;;11.70;2.55;;;;;;;26.91;53.34;99678.78;10406950;28;20082;-73
2023/06/10 05:34:06;;;;;;;11.18;2.40;;;;;;;26.10;53.06;99550.66;10406924;28;20106;-72
2023/06/10 05:39:07;;;;;;;3.80;1.83;;;;;;;26.49;52.48;99667.56;10406899;28;20190;-72
2023/06/10 05:44:08;;;;;;;6.60;2.55;;;;;;;26.22;52.58;99664.59;10402670;28;20038;-73
2023/06/10 05:49:08;;;;;;;5.30;2.40;;;;;;;25.97;52.54;99666.47;10378618;28;20511;-73
2023/06/10 05:54:09;;;;;;;10.10;2.60;;;;;;;25.85;53.07;99653.25;10358863;28;20038;-72
2023/06/10 05:59:10;;;;;;;7.95;2.20;;;;;;;25.80;50.04;99653.25;10367290;28;20049;-72
2023/06/10 06:04:11;;;;;;;7.43;2.28;;;;;;;25.62;49.30;99654.75;10358771;28;20064;-73
2023/06/10 06:09:12;;;;;;;30.15;2.92;;;;;;;25.64;50.15;99663.44;10364789;28;20053;-73
2023/06/10 06:14:13;;;;;;;18.35;2.50;;;;;;;25.55;50.76;99643.41;10398596;28;20041;-72
2023/06/10 06:19:14;;;;;;;16.42;2.70;;;;;;;25.37;50.29;99653.06;10387650;28;20050;-71
2023/06/10 06:24:16;;;;;;;8.30;2.13;;;;;;;24.32;49.81;99518.31;10364832;28;20130;-71
2023/06/10 06:29:16;;;;;;;4.93;2.08;;;;;;;25.02;50.00;99641.28;10362879;28;20058;-72
2023/06/10 06:34:17;;;;;;;56.20;4.47;;;;;;;25.01;50.23;99631.50;10369007;28;20458;-73
2023/06/10 06:39:18;;;;;;;8.15;2.08;;;;;;;24.76;50.52;99564.53;10371341;28;20046;-72
2023/06/10 06:44:19;;;;;;;3.88;1.83;;;;;;;25.37;49.85;99642.19;10371140;28;20531;-71
2023/06/10 06:49:20;;;;;;;6.93;2.08;;;;;;;25.04;49.47;99567.63;10369561;28;20493;-71
2023/06/10 06:54:21;;;;;;;18.00;2.58;;;;;;;25.52;49.44;99646.69;10367478;28;20044;-72
2023/06/10 06:59:22;;;;;;;6.32;1.85;;;;;;;25.45;49.10;99625.22;10372423;28;20046;-72
2023/06/10 07:04:23;;;;;;;7.28;1.77;;;;;;;25.40;48.42;99592.66;10362455;28;20054;-71
2023/06/10 07:09:24;;;;;;;7.30;1.77;;;;;;;25.90;47.94;99631.41;10394897;28;20090;-72
2023/06/10 07:14:24;;;;;;;26.02;3.00;;;;;;;26.02;48.52;99630.22;10409377;28;20128;-71
2023/06/10 07:19:25;;;;;;;20.20;2.75;;;;;;;26.21;48.31;99619.41;10408914;28;20116;-68
2023/06/10 07:24:26;;;;;;;12.15;1.90;;;;;;;26.52;47.44;99625.34;10407992;28;20614;-72
2023/06/10 07:29:27;;;;;;;4.68;2.03;;;;;;;26.70;47.10;99619.09;10410299;28;20532;-72
2023/06/10 07:34:28;;;;;;;10.55;2.25;;;;;;;26.91;47.02;99618.81;10411164;28;20045;-71
2023/06/10 07:39:28;;;;;;;10.48;2.20;;;;;;;27.48;46.51;99611.44;10410207;28;20041;-71
2023/06/10 07:44:29;;;;;;;17.00;2.58;;;;;;;28.22;46.05;99615.03;10408746;28;20045;-68
2023/06/10 07:49:30;;;;;;;10.10;2.08;;;;;;;28.50;44.69;99585.00;10392308;28;20141;-71
2023/06/10 07:54:31;;;;;;;6.82;2.08;;;;;;;28.29;44.21;99499.94;10391202;28;20366;-71
2023/06/10 07:59:32;;;;;;;6.30;2.50;;;;;;;28.52;43.81;99558.19;10385674;28;20036;-71
2023/06/10 08:04:35;;;;;;;8.30;2.17;;;;;;;28.04;44.59;99498.56;10386463;28;20058;-70
2023/06/10 08:09:36;;;;;;;16.15;2.10;;;;;;;28.17;43.87;99538.69;10383642;28;20049;-71
2023/06/10 08:14:36;;;;;;;6.97;1.92;;;;;;;28.58;43.11;99550.72;10396285;28;20073;-71
2023/06/10 08:19:37;;;;;;;15.68;2.17;;;;;;;28.57;43.73;99552.63;10393666;28;20030;-72
2023/06/10 08:24:38;;;;;;;6.10;2.22;;;;;;;28.20;42.70;99494.38;10382406;28;20042;-72
2023/06/10 08:29:40;;;;;;;7.65;2.00;;;;;;;29.00;42.25;99530.31;10391813;28;20132;-71
2023/06/10 08:34:40;;;;;;;9.27;1.75;;;;;;;29.58;41.10;99518.47;10409050;28;20493;-72
2023/06/10 08:39:41;;;;;;;22.98;2.97;;;;;;;29.90;40.56;99519.28;10385472;28;20064;-71
2023/06/10 08:44:43;;;;;;;5.78;2.47;;;;;;;29.97;40.19;99514.13;10364661;28;20065;-72
2023/06/10 08:49:47;;;;;;;6.20;2.22;;;;;;;29.47;39.85;99467.09;10366430;28;20049;-71
2023/06/10 08:55:02;;;;;;;8.73;2.63;;;;;;;29.34;39.70;99502.41;10366525;28;20046;-72
2023/06/10 09:00:05;;;;;;;9.45;2.30;;;;;;;29.00;40.01;99496.69;10366886;28;20124;-73
2023/06/10 09:05:07;;;;;;;42.38;3.05;;;;;;;28.61;40.53;99444.31;10367160;28;20061;-71
2023/06/10 09:10:09;;;;;;;19.85;3.15;;;;;;;29.05;40.88;99499.34;10365436;28;20081;-70
2023/06/10 09:15:12;;;;;;;11.80;2.33;;;;;;;29.08;40.76;99498.72;10365957;28;20069;-71
2023/06/10 09:20:12;;;;;;;;;;;;;;;29.43;40.25;99499.72;10365683;28;20057;-70
2023/06/10 09:25:13;;;;;;;9.68;2.40;;;;;;;28.96;41.35;99452.78;10367048;28;19924;-69
2023/06/10 09:30:35;;;;;;;11.02;2.50;;;;;;;29.08;40.61;99485.84;10366697;28;20057;-71
2023/06/10 09:35:35;;;;;;;6.28;2.58;;;;;;;28.50;41.54;99469.47;10378646;28;20045;-71
2023/06/10 09:40:52;;;;;;;11.48;2.75;;;;;;;28.48;42.46;99491.63;10406734;28;20057;-72
2023/06/10 09:45:57;;;;;;;7.28;2.47;;;;;;;28.54;41.55;99490.41;10406533;28;20175;-70
2023/06/10 09:50:58;;;;;;;12.50;2.58;;;;;;;28.89;41.77;99482.47;10401683;28;20039;-73
2023/06/10 09:55:59;;;;;;;6.47;2.72;;;;;;;28.59;41.75;99421.97;10387477;28;20412;-72
2023/06/10 10:01:05;;;;;;;10.03;2.60;;;;;;;28.77;42.92;99465.81;10380695;28;20416;-70
2023/06/10 10:06:06;;;;;;;7.82;2.22;;;;;;;28.50;42.14;99421.09;10388635;28;20052;-72
2023/06/10 10:11:06;;;;;;;12.20;2.78;;;;;;;28.60;42.39;99423.59;10390328;28;20056;-72
2023/06/10 10:16:15;;;;;;;9.27;2.50;;;;;;;29.16;42.79;99424.13;10388741;28;20083;-71
2023/06/10 10:21:21;;;;;;;8.90;2.92;;;;;;;29.44;42.06;99422.00;10387328;28;20493;-71
2023/06/10 10:26:25;;;;;;;14.60;3.22;;;;;;;29.47;42.99;99439.72;10389376;28;20094;-71
2023/06/10 10:31:30;;;;;;;14.35;3.42;;;;;;;29.83;43.43;99436.81;10403354;28;20037;-71
2023/06/10 10:36:31;;;;;;;21.60;3.58;;;;;;;29.64;43.18;99419.84;10412147;28;20082;-71
2023/06/10 10:41:33;;;;;;;10.02;3.17;;;;;;;29.34;44.39;99425.00;10411418;28;20086;-71
2023/06/10 10:46:50;;;;;;;11.57;3.20;;;;;;;29.82;44.62;99412.47;10411462;28;20046;-70
2023/06/10 10:51:58;;;;;;;13.55;3.42;;;;;;;29.96;44.00;99391.25;10411246;28;20044;-71
2023/06/10 10:57:19;;;;;;;27.13;3.40;;;;;;;29.55;44.11;99343.97;10408503;28;20169;-72
2023/06/10 11:02:43;;;;;;;9.73;2.95;;;;;;;30.08;44.92;99393.34;10411690;28;20063;-71
2023/06/10 11:07:58;;;;;;;10.48;3.30;;;;;;;29.84;44.38;99391.06;10403745;28;20421;-71
2023/06/10 11:12:59;;;;;;;15.18;4.05;;;;;;;29.10;45.23;99348.81;10409906;28;20064;-71
2023/06/10 11:18:25;;;;;;;10.25;3.00;;;;;;;29.18;45.77;99399.19;10410349;28;20048;-71
2023/06/10 11:23:32;;;;;;;14.98;3.17;;;;;;;29.01;46.74;99384.28;10410730;28;20486;-72
2023/06/10 11:28:33;;;;;;;21.00;4.18;;;;;;;29.29;46.73;99378.66;10409329;28;20041;-71
2023/06/10 11:33:39;;;;;;;16.15;3.92;;;;;;;29.38;46.63;99324.78;10410379;28;20052;-71
2023/06/10 11:38:44;;;;;;;28.98;4.43;;;;;;;30.21;45.22;99365.03;10410579;28;20041;-70
2023/06/10 11:43:45;;;;;;;14.77;3.70;;;;;;;30.31;44.97;99359.22;10409620;28;20484;-71
2023/06/10 11:48:53;;;;;;;103.45;7.40;;;;;;;30.68;45.46;99362.41;10410192;28;20504;-72
2023/06/10 11:53:54;;;;;;;34.50;5.35;;;;;;;30.81;44.58;99347.75;10408371;28;20049;-71
2023/06/10 11:59:06;;;;;;;15.60;3.47;;;;;;;30.56;44.56;99293.75;10408717;28;20094;-71
2023/06/10 12:04:11;;;;;;;19.80;3.88;;;;;;;30.95;44.78;99350.25;10408518;28;20101;-71
2023/06/10 12:09:15;;;;;;;10.75;4.00;;;;;;;30.56;44.76;99288.25;10387603;28;20045;-70
2023/06/10 12:14:16;;;;;;;14.88;4.13;;;;;;;30.67;45.01;99322.41;10393062;28;20037;-71
2023/06/10 12:19:17;;;;;;;19.98;4.05;;;;;;;30.68;45.88;99326.75;10386164;28;20052;-71
2023/06/10 12:24:18;;;;;;;23.50;4.50;;;;;;;30.45;46.24;99323.41;10382427;28;20074;-71
2023/06/10 12:29:27;;;;;;;17.25;4.75;;;;;;;30.90;46.30;99336.72;10404239;28;20136;-72
2023/06/10 12:34:38;;;;;;;13.82;4.18;;;;;;;31.20;44.82;99326.56;10407856;28;20439;-71
2023/06/10 12:39:40;;;;;;;10.40;3.50;;;;;;;30.78;45.16;99266.09;10404108;28;20064;-71
2023/06/10 12:44:41;;;;;;;13.03;3.80;;;;;;;31.08;45.40;99324.56;10371224;28;20128;-70
2023/06/10 12:49:42;;;;;;;12.93;4.00;;;;;;;30.90;45.42;99337.53;10393533;28;20807;-71
2023/06/10 12:54:43;;;;;;;11.50;4.45;;;;;;;30.16;45.98;99250.13;10407822;28;20042;-71
2023/06/10 12:59:50;;;;;;;34.03;16.05;;;;;;;30.42;45.74;99326.81;10406268;28;20409;-71
2023/06/10 13:04:51;;;;;;;34.78;8.07;;;;;;;30.14;46.54;99293.47;10381301;28;20379;-71
2023/06/10 13:09:52;;;;;;;10.32;4.50;;;;;;;30.15;46.36;99306.81;10380596;28;20054;-71
2023/06/10 13:14:54;;;;;;;8.45;3.88;;;;;;;30.03;47.04;99298.47;10378996;28;20050;-71
2023/06/10 13:19:55;;;;;;;18.17;4.72;;;;;;;30.00;47.32;99290.88;10386614;28;20036;-71
2023/06/10 13:24:56;;;;;;;9.63;4.03;;;;;;;29.74;46.68;99230.69;10389636;28;20033;-71
2023/06/10 13:29:57;;;;;;;12.38;3.80;;;;;;;30.29;46.36;99262.84;10394178;28;20050;-70
2023/06/10 13:34:58;;;;;;;10.90;3.92;;;;;;;30.42;46.82;99272.00;10374819;28;20378;-71
2023/06/10 13:39:59;;;;;;;14.52;4.13;;;;;;;30.61;46.86;99286.16;10390551;28;20038;-71
2023/06/10 13:45:00;;;;;;;86.10;7.88;;;;;;;30.46;46.31;99215.44;10386005;28;20544;-71
2023/06/10 13:50:01;;;;;;;13.45;4.10;;;;;;;30.78;45.89;99273.50;10397425;28;20038;-71
2023/06/10 13:55:02;;;;;;;102.93;8.48;;;;;;;30.51;45.65;99253.59;10393723;28;20091;-71
2023/06/10 14:00:03;;;;;;;30.58;4.90;;;;;;;30.47;46.16;99274.59;10390983;28;20067;-70
2023/06/10 14:05:05;;;;;;;22.65;4.43;;;;;;;30.46;45.59;99257.34;10394042;28;20412;-72
2023/06/10 14:10:08;;;;;;;10.65;3.65;;;;;;;30.55;45.99;99246.34;10383554;28;20047;-71
2023/06/10 14:15:09;;;;;;;17.83;4.78;;;;;;;29.86;46.64;99135.03;10379811;28;20405;-72
2023/06/10 14:20:10;;;;;;;17.02;3.63;;;;;;;30.41;46.68;99245.75;10386780;28;20034;-71
2023/06/10 14:25:11;;;;;;;9.90;3.85;;;;;;;30.16;47.15;99261.88;10388562;28;20125;-71
2023/06/10 14:30:12;;;;;;;16.17;4.30;;;;;;;29.96;48.11;99274.31;10378556;28;20042;-71
2023/06/10 14:35:13;;;;;;;8.07;4.15;;;;;;;29.71;48.41;99286.88;10378649;28;20550;-71
2023/06/10 14:40:14;;;;;;;21.05;5.10;;;;;;;29.51;48.45;99279.25;10379539;28;20042;-71
2023/06/10 14:45:15;;;;;;;9.43;3.65;;;;;;;29.16;49.13;99253.75;10364235;28;20055;-71
2023/06/10 14:50:16;;;;;;;7.78;3.33;;;;;;;29.04;49.02;99249.69;10368149;28;20386;-71
2023/06/10 14:55:16;;;;;;;14.27;5.00;;;;;;;28.92;49.78;99260.41;10370003;28;20202;-72
2023/06/10 15:00:19;;;;;;;10.07;4.85;;;;;;;28.54;49.90;99214.47;10370853;28;20053;-71
2023/06/10 15:05:20;;;;;;;;;;;;;;;29.07;49.43;99281.06;10386557;28;20054;-71
2023/06/10 15:10:21;;;;;;;15.90;5.97;;;;;;;28.72;50.19;99256.34;10370548;28;20369;-71
2023/06/10 15:15:23;;;;;;;10.68;4.38;;;;;;;28.75;50.17;99271.25;10389279;28;20550;-71
2023/06/10 15:20:24;;;;;;;13.02;3.67;;;;;;;28.81;50.43;99280.97;10410257;28;20042;-71
2023/06/10 15:25:25;;;;;;;12.48;3.35;;;;;;;28.00;49.83;99142.69;10398053;28;20508;-71
2023/06/10 15:30:26;;;;;;;67.00;6.45;;;;;;;28.81;50.65;99259.91;10411135;28;20051;-71
2023/06/10 15:35:27;;;;;;;11.43;3.17;;;;;;;28.15;49.88;99139.56;10410183;28;20143;-72
2023/06/10 15:40:27;;;;;;;11.40;3.95;;;;;;;28.99;49.64;99255.31;10409911;28;20431;-71
2023/06/10 15:45:28;;;;;;;13.40;4.72;;;;;;;29.03;49.96;99264.50;10410819;28;20132;-72
2023/06/10 15:50:29;;;;;;;11.65;4.60;;;;;;;28.92;49.62;99265.88;10408120;28;20563;-71
2023/06/10 15:55:30;;;;;;;14.75;4.50;;;;;;;28.21;50.47;99186.66;10407861;28;20038;-71
2023/06/10 16:00:31;;;;;;;17.25;6.35;;;;;;;28.57;51.09;99273.09;10396923;28;20053;-72
2023/06/10 16:05:32;;;;;;;13.65;5.63;;;;;;;28.42;51.46;99280.59;10408214;28;20057;-71
2023/06/10 16:10:48;;;;;;;23.30;4.85;;;;;;;28.35;51.29;99284.84;10409771;28;20139;-72
2023/06/10 16:15:48;;;;;;;14.95;3.90;;;;;;;27.76;52.23;99224.81;10408291;28;20068;-71
2023/06/10 16:20:49;;;;;;;25.45;4.13;;;;;;;28.00;52.18;99292.81;10395613;28;20509;-73
2023/06/10 16:25:50;;;;;;;13.65;3.50;;;;;;;27.94;52.38;99283.09;10369888;28;20049;-73
2023/06/10 16:30:51;;;;;;;25.17;3.58;;;;;;;27.45;53.41;99230.19;10367779;28;20041;-71
2023/06/10 16:35:52;;;;;;;12.05;3.38;;;;;;;27.66;53.66;99275.00;10366980;28;20524;-70
2023/06/10 16:40:52;;;;;;;19.65;4.25;;;;;;;27.52;54.67;99285.13;10367891;28;20175;-72
2023/06/10 16:45:55;;;;;;;14.27;5.53;;;;;;;27.29;55.40;99276.88;10360674;28;20041;-73
2023/06/10 16:50:56;;;;;;;27.08;8.30;;;;;;;27.14;56.55;99281.81;10405933;28;20045;-72
2023/06/10 16:55:56;;;;;;;28.33;8.85;;;;;;;26.85;57.83;99293.81;10406311;28;20049;-74
2023/06/10 17:01:04;;;;;;;23.88;15.05;;;;;;;26.64;59.12;99307.00;10404621;28;20048;-75
2023/06/10 17:06:05;;;;;;;27.02;16.90;;;;;;;26.36;59.70;99296.00;10397570;28;20057;-73
2023/06/10 17:11:06;;;;;;;33.47;16.25;;;;;;;25.98;61.33;99291.75;10392904;28;20468;-72
2023/06/10 17:16:07;;;;;;;27.00;11.15;;;;;;;25.73;61.92;99296.44;10404377;28;20128;-76
2023/06/10 17:21:07;;;;;;;12.55;5.90;;;;;;;24.62;62.16;99145.38;10405437;28;20037;-71
2023/06/10 17:26:08;;;;;;;16.23;5.00;;;;;;;25.26;61.39;99255.44;10407065;28;20140;-76
2023/06/10 17:31:09;;;;;;;7.95;3.83;;;;;;;25.53;61.49;99313.00;10406433;28;20048;-78
2023/06/10 17:36:10;;;;;;;9.23;3.92;;;;;;;25.25;61.63;99300.03;10405964;28;20041;-73
2023/06/10 17:41:10;;;;;;;9.90;4.07;;;;;;;25.33;62.12;99328.47;10398494;28;20049;-76
2023/06/10 17:46:11;;;;;;;14.00;4.30;;;;;;;25.32;62.30;99340.44;10405071;28;20490;-73
2023/06/10 17:51:12;;;;;;;12.38;4.90;;;;;;;25.01;62.67;99313.59;10404483;28;20056;-74
2023/06/10 17:56:13;;;;;;;13.05;4.68;;;;;;;25.02;63.59;99334.22;10406411;28;20042;-75
2023/06/10 18:01:14;;;;;;;15.05;4.70;;;;;;;24.97;64.61;99347.06;10405824;28;20052;-69
2023/06/10 18:06:15;;;;;;;10.98;5.10;;;;;;;24.79;65.38;99343.16;10406359;28;20144;-71
2023/06/10 18:11:15;;;;;;;14.77;4.93;;;;;;;24.52;66.24;99335.53;10405026;28;20386;-70
2023/06/10 18:16:16;;;;;;;10.02;4.75;;;;;;;24.43;66.81;99346.19;10406444;28;20045;-71
2023/06/10 18:21:17;;;;;;;10.43;4.90;;;;;;;24.07;67.76;99321.19;10405934;28;20041;-70
2023/06/10 18:26:18;;;;;;;11.68;5.03;;;;;;;24.13;68.47;99342.56;10406198;28;20120;-69
2023/06/10 18:31:19;;;;;;;13.38;6.05;;;;;;;24.01;69.45;99346.72;10412424;28;20045;-69
2023/06/10 18:36:20;;;;;;;10.23;5.72;;;;;;;23.84;70.08;99328.09;10412272;28;20042;-68
2023/06/10 18:41:22;;;;;;;12.60;5.82;;;;;;;23.66;71.11;99316.81;10411682;28;20041;-69
2023/06/10 18:46:23;;;;;;;12.25;5.65;;;;;;;23.64;70.97;99318.16;10410793;28;20048;-69
2023/06/10 18:51:23;;;;;;;17.48;5.95;;;;;;;23.49;71.71;99324.47;10412601;28;20048;-69
2023/06/10 18:56:25;;;;;;;17.13;5.70;;;;;;;23.30;72.36;99320.75;10411863;28;20036;-70
2023/06/10 19:01:25;;;;;;;17.27;6.55;;;;;;;23.32;73.03;99324.00;10411780;28;20044;-69
2023/06/10 19:06:26;;;;;;;11.88;5.90;;;;;;;23.17;73.53;99328.38;10410246;28;20064;-69
2023/06/10 19:11:27;;;;;;;12.73;5.70;;;;;;;23.00;73.96;99317.03;10408839;28;20050;-70
2023/06/10 19:16:28;;;;;;;10.27;5.38;;;;;;;22.91;74.80;99315.94;10410439;28;20037;-71
2023/06/10 19:21:29;;;;;;;11.40;5.80;;;;;;;22.79;75.03;99291.88;10409665;28;20088;-70
2023/06/10 19:26:29;;;;;;;11.50;6.13;;;;;;;22.43;75.40;99229.69;10410474;28;20045;-70
2023/06/10 19:31:30;;;;;;;14.57;6.63;;;;;;;22.38;75.81;99231.63;10410660;28;20069;-70
2023/06/10 19:36:31;;;;;;;18.50;6.55;;;;;;;22.81;75.45;99284.31;10410125;28;20450;-69
2023/06/10 19:41:32;;;;;;;14.05;5.70;;;;;;;22.72;75.94;99280.53;10409400;28;20037;-69
2023/06/10 19:46:33;;;;;;;17.55;6.05;;;;;;;22.59;76.65;99295.44;10409570;28;20489;-69
2023/06/10 19:51:34;;;;;;;23.35;5.97;;;;;;;22.22;76.70;99244.31;10410178;28;20037;-69
2023/06/10 19:56:34;;;;;;;14.32;5.90;;;;;;;22.36;77.23;99258.13;10410380;28;20138;-69
2023/06/10 20:01:35;;;;;;;17.05;6.10;;;;;;;22.43;77.58;99259.44;10410416;28;20061;-70
2023/06/10 20:06:36;;;;;;;14.82;6.00;;;;;;;22.55;77.67;99270.00;10409316;28;20060;-69
2023/06/10 20:11:37;;;;;;;11.60;6.20;;;;;;;22.51;78.22;99244.56;10408377;28;20152;-69
2023/06/10 20:16:38;;;;;;;13.55;6.13;;;;;;;21.90;78.51;99142.66;10410097;28;20132;-69
2023/06/10 20:21:39;;;;;;;17.00;6.18;;;;;;;22.43;78.81;99229.69;10408436;28;20128;-69
2023/06/10 20:26:40;;;;;;;14.32;6.43;;;;;;;22.47;79.04;99229.97;10408541;28;20066;-69
2023/06/10 20:31:42;;;;;;;25.00;7.90;;;;;;;22.51;79.24;99228.31;10407536;28;20045;-70
2023/06/10 20:36:43;;;;;;;13.88;6.68;;;;;;;22.02;79.43;99153.19;10408224;28;20045;-70
2023/06/10 20:41:43;;;;;;;11.45;6.70;;;;;;;22.13;79.50;99168.28;10376811;28;20041;-69
2023/06/10 20:46:44;;;;;;;15.55;6.00;;;;;;;22.22;79.86;99196.44;10408159;28;20554;-69
2023/06/10 20:51:45;;;;;;;14.15;6.40;;;;;;;21.91;80.05;99149.66;10407227;28;20044;-69
2023/06/10 20:56:46;;;;;;;10.65;5.63;;;;;;;22.24;80.04;99215.91;10408822;28;20030;-69
2023/06/10 21:01:47;;;;;;;10.65;5.80;;;;;;;22.03;80.23;99203.47;10406976;28;20068;-70
2023/06/10 21:06:47;;;;;;;12.10;5.65;;;;;;;21.69;81.01;99186.94;10407868;28;20060;-70
2023/06/10 21:11:48;;;;;;;12.70;6.35;;;;;;;21.94;81.80;99234.84;10407009;28;20033;-70
2023/06/10 21:16:49;;;;;;;20.75;6.47;;;;;;;21.50;82.01;99151.53;10407396;28;20037;-69
2023/06/10 21:21:50;;;;;;;16.05;6.05;;;;;;;21.98;81.85;99216.97;10406743;28;20041;-69
2023/06/10 21:26:50;;;;;;;14.02;6.38;;;;;;;21.36;82.56;99173.69;10406567;28;20045;-69
2023/06/10 21:31:51;;;;;;;13.75;6.72;;;;;;;21.63;83.12;99243.72;10406633;28;20042;-69
2023/06/10 21:36:52;;;;;;;15.68;6.40;;;;;;;21.68;83.61;99248.31;10406649;28;20044;-68
2023/06/10 21:41:53;;;;;;;9.77;5.85;;;;;;;21.77;83.81;99245.91;10406059;28;20088;-69
2023/06/10 21:46:54;;;;;;;20.33;5.95;;;;;;;21.88;83.73;99253.75;10406691;28;20083;-69
2023/06/10 21:51:54;;;;;;;19.63;5.47;;;;;;;21.48;83.81;99169.91;10406725;28;20041;-70
2023/06/10 21:56:55;;;;;;;19.83;5.00;;;;;;;22.07;84.15;99250.50;10406309;28;20098;-70
2023/06/10 22:01:56;;;;;;;26.23;4.95;;;;;;;22.15;84.22;99239.16;10409815;28;20046;-70
2023/06/10 22:06:57;;;;;;;14.07;4.05;;;;;;;22.11;83.89;99238.91;10413531;28;20096;-70
2023/06/10 22:11:58;;;;;;;19.30;4.90;;;;;;;22.25;84.09;99255.41;10412788;28;20041;-70
2023/06/10 22:16:59;;;;;;;15.70;5.22;;;;;;;22.30;83.93;99266.22;10413044;28;20045;-70
2023/06/10 22:22:00;;;;;;;21.00;4.97;;;;;;;22.33;83.79;99275.69;10413749;28;20049;-70
2023/06/10 22:27:01;;;;;;;15.85;4.32;;;;;;;22.32;83.83;99265.97;10412741;28;20045;-70
2023/06/10 22:32:02;;;;;;;17.90;4.63;;;;;;;22.32;83.87;99263.28;10412765;28;20058;-70
2023/06/10 22:37:03;;;;;;;12.02;4.28;;;;;;;22.33;84.01;99271.09;10411342;28;20038;-69
2023/06/10 22:42:08;;;;;;;17.33;4.88;;;;;;;22.25;83.75;99255.41;10411583;28;20045;-69
2023/06/10 22:47:09;;;;;;;13.35;4.38;;;;;;;21.97;83.96;99207.25;10411782;28;20099;-69
2023/06/10 22:52:09;;;;;;;18.70;4.90;;;;;;;22.39;84.20;99263.00;10412029;28;20060;-69
2023/06/10 22:57:10;;;;;;;17.02;4.70;;;;;;;22.31;84.77;99267.03;10411654;28;20037;-69
2023/06/10 23:02:11;;;;;;;14.15;4.78;;;;;;;22.14;85.00;99250.25;10411367;28;20101;-69
2023/06/10 23:07:13;;;;;;;12.43;4.60;;;;;;;22.23;85.26;99263.00;10411198;28;20067;-69
2023/06/10 23:12:14;;;;;;;13.05;4.60;;;;;;;21.72;85.35;99183.72;10409740;28;20490;-69